Airfield :
LOGIN :

Register | Disclaimer

   EN    FR    IT 

 










Legend :    VFR   Marginal VFR   IFR   Intensive IFR   Very Intensive IFR
Visi :
Ceiling :
>= 8 km
>= 3000ft
5 to 8 km
1000 to 3000 ft
1500m to 5 km
500 to 1000 ft
800 to 1500m
200 to 500 ft
< 800m
< 200 ft
Symbols :   Thunderstorms  Fog  Heavy snow  Heavy precipitations  Wind > 20 kt
SIGMETs :     Misc.  Thunderstorms  Icing  Turbulence  Mountain Waves  Volcanic Ashes






- Airport Elevation : 3 ft
- IATA code : LWR


EHLW - Leuuwarden Air Base

CURRENT METAR :
  • 021925Z AUTO 31005KT 280V340 9999 NCD 14/11 Q1014 BLU

EXPIRED METARs :
  • 021855Z AUTO 31006KT 280V350 9999 NCD 16/12 Q1014 BLU
  • 021825Z AUTO 33008KT 290V350 9999 NCD 17/11 Q1014 BLU
  • 021755Z AUTO 31009KT 260V360 9999 OVC077 18/11 Q1014 BLU
  • 021725Z AUTO 31010KT 270V360 9999 OVC077 18/11 Q1014 BLU
  • 021655Z AUTO 31010KT 270V010 9999 FEW029 BKN057 OVC078 18/11 Q1014 BLU
  • 021645Z AUTO 31010KT 280V010 9999 FEW024 SCT030 OVC076 18/11 Q1014 BLU

TAF TAF EHLW
Valid from the 02 at 17:00 until the 03 at 05:00 UTC


021633Z 0217/0305 32009KT 9999 SCT024 BKN040
BECMG 0217/0220 29004KT
TEMPO 0222/0305 VRB02KT 4000 BR MIFG
PROB30 0300/0304 1800 BCFG



MET'MAP, your aeronautical weather chart ! - Copyright ORBIFLY December 2007 - Disclaimer

ORBIFLY MET'MAP TEAM :

Programming & Development : Alexandra Zaïnal
Concept & original design : Baudouin d'Aumeries
Assistance for programming : Marc-Olivier Méhu
Technical & hardware support : Manuel Goepfert

Contact : metmap@orbifly.com




SOURCES & CREDITS :

   NOAA